Impacts METAR Board
IDs:

KIAH - Houston/Bush Intl, TX, US

Updated at: 0500 UTC 17 Aug 2018
Potential Impact None Slight Moderate High
Time 16/17Z 16/18Z 16/19Z 16/20Z 16/21Z 16/22Z 16/23Z 17/00Z 17/01Z 17/02Z 17/03Z 17/04Z 17/05Z
Temp91 94 95 95 97 86 87 86 86 86 84 83 82
Dewpt77 78 74 74 74 75 76 79 79 78 78 78 78
Altim30.08 30.06 30.04 30.02 30.00 30.01 30.00 30.00 30.01 30.03 30.06 30.07 30.07
VIS10 10 10 10 10 10 10 10 10 10 10 10 10
CIG-- -- -- -- -- 250 250 -- -- -- -- -- --
CoverSCTSCTSCTSCTSCTBKNBKNSCTSCTFEWFEWFEWFEW
FltCatVFRVFRVFRVFRVFRVFRVFRVFRVFRVFRVFRVFRVFR
WX----------TS--------------
WDir2102001600170180160170170170170180190
WSpd3 5 5 6 6 11 7 7 6 8 6 5 4
WGst-- -- -- -- -- 26 -- -- -- -- -- -- --
Raw hourly METARs
KIAH 161653Z 21003KT 10SM SCT032 SCT250 33/25 A3008 RMK AO2 SLP183 TCU DSNT N SE-S NW T03280250
KIAH 161753Z 20005KT 10SM SCT035 SCT250 34/26 A3006 RMK AO2 SLP178 TCU DSNT S T03440256 10344 20250 58005
KIAH 161853Z 16005KT 10SM SCT040 SCT250 35/23 A3004 RMK AO2 SLP170 CB DSNT S AND SW T03500233
KIAH 161953Z VRB06KT 10SM SCT045 SCT250 35/23 A3002 RMK AO2 SLP164 T03500233
KIAH 162053Z 17006KT 10SM SCT050 SCT250 36/23 A3000 RMK AO2 LTG DSNT SE AND S SLP158 CB SHRA DSNT SE MOV N T03610233 56020
KIAH 162153Z 18011G26KT 10SM TS FEW035 SCT050CB BKN250 30/24 A3001 RMK AO2 PK WND 15026/2145 TSB23 SLP162 VCSH S-SW FRQ LTGICCG S-SW TS S-SW MOV NW CB DSNT NW T03000239
KIAH 162253Z 16007KT 10SM FEW035 FEW060 BKN250 31/24 A3000 RMK AO2 LTG DSNT N AND NE TSE23 SLP158 CB DSNT N AND NE T03060244
KIAH 162353Z 17007KT 10SM FEW030 SCT250 30/26 A3000 RMK AO2 SLP157 T03000261 10361 20294 58001
KIAH 170053Z 17006KT 10SM FEW030 SCT250 30/26 A3001 RMK AO2 SLP160 T03000261
KIAH 170153Z 17008KT 10SM FEW025 FEW250 30/26 A3003 RMK AO2 SLP166 T03000256
KIAH 170253Z 17006KT 10SM FEW020 FEW250 29/26 A3006 RMK AO2 SLP176 T02890256 53019
KIAH 170353Z 18005KT 10SM FEW020 FEW250 28/26 A3007 RMK AO2 SLP182 T02830256
KIAH 170453Z 19004KT 10SM FEW020 28/26 A3007 RMK AO2 SLP182 T02780256



Page loaded:  05:24 UTC  |   10:24 PM Pacific  |   11:24 PM Mountain  |   12:24 AM Central  |   01:24 AM Eastern

 

ADVISORIES

FORECASTS

FORECASTS

OBSERVATIONS

USER TOOLS

ABOUT US